Time;durP1;ratioP1;P1;durP2;ratioP2;P2;SDS_P1;SDS_P2;PMS_P1;PMS_P2;Temp;Humidity;BMP_temperature;BMP_pressure;BME280_temperature;BME280_humidity;BME280_pressure;Samples;Min_cycle;Max_cycle;Signal;HPM_P1;HPM_P2
2022/07/28 00:03:04;;;;;;;3.97;0.90;;;23.30;54.10;;;;;;10049692;28;20120;-62
2022/07/28 00:07:55;;;;;;;0.68;0.60;;;23.40;54.20;;;;;;10055163;28;20034;-63
2022/07/28 00:12:45;;;;;;;0.80;0.80;;;23.30;54.20;;;;;;10049204;28;20017;-63
2022/07/28 00:17:36;;;;;;;2.47;0.98;;;23.30;54.10;;;;;;10058540;28;20040;-63
2022/07/28 00:22:27;;;;;;;1.05;0.80;;;23.30;54.20;;;;;;10058379;28;20031;-63
2022/07/28 00:27:17;;;;;;;1.45;0.93;;;23.20;54.20;;;;;;10052580;28;20504;-63
2022/07/28 00:32:08;;;;;;;2.75;0.73;;;23.20;54.20;;;;;;10058409;28;20417;-64
2022/07/28 00:36:59;;;;;;;1.27;0.77;;;23.20;54.40;;;;;;10058030;28;20049;-63
2022/07/28 00:41:50;;;;;;;1.23;0.80;;;23.00;54.60;;;;;;10058662;28;20040;-63
2022/07/28 00:46:40;;;;;;;1.27;0.75;;;23.00;54.70;;;;;;10055752;28;20040;-63
2022/07/28 00:51:31;;;;;;;0.93;0.88;;;22.90;54.70;;;;;;10053568;28;20462;-64
2022/07/28 00:56:23;;;;;;;1.17;1.02;;;22.80;54.80;;;;;;10055839;28;20583;-63
2022/07/28 01:01:16;;;;;;;2.03;1.10;;;22.80;54.90;;;;;;10050733;28;20057;-63
2022/07/28 01:06:38;;;;;;;1.67;0.80;;;22.60;55.10;;;;;;10047756;28;20038;-63
2022/07/28 01:11:55;;;;;;;3.15;0.98;;;22.70;55.10;;;;;;10050281;28;20169;-64
2022/07/28 01:16:59;;;;;;;1.65;0.82;;;22.70;55.10;;;;;;10050334;28;20018;-64
2022/07/28 01:21:50;;;;;;;2.28;0.90;;;22.60;55.20;;;;;;10056252;28;20087;-63
2022/07/28 01:27:02;;;;;;;1.35;0.90;;;22.50;55.30;;;;;;10053855;28;20065;-63
2022/07/28 01:32:05;;;;;;;1.15;0.75;;;22.50;55.40;;;;;;10056331;28;20069;-63
2022/07/28 01:37:07;;;;;;;2.28;1.17;;;22.60;55.20;;;;;;10055609;28;20057;-63
2022/07/28 01:42:00;;;;;;;1.00;0.70;;;22.70;55.10;;;;;;10048285;28;20102;-66
2022/07/28 01:46:52;;;;;;;2.25;0.85;;;22.70;55.00;;;;;;10054407;28;20041;-63
2022/07/28 01:51:43;;;;;;;1.90;0.93;;;22.60;55.20;;;;;;10053660;28;20033;-64
2022/07/28 01:56:35;;;;;;;1.33;0.68;;;22.40;55.30;;;;;;10054622;28;20018;-64
2022/07/28 02:01:27;;;;;;;2.13;0.98;;;22.20;55.70;;;;;;10055232;28;20155;-63
2022/07/28 02:06:19;;;;;;;1.17;0.75;;;22.30;55.60;;;;;;10054463;28;20044;-64
2022/07/28 02:16:23;;;;;;;1.60;1.35;;;21.80;56.40;;;;;;10057756;28;20051;-63
2022/07/28 02:21:15;;;;;;;2.13;0.90;;;21.80;56.40;;;;;;10054510;28;20033;-63
2022/07/28 02:26:09;;;;;;;2.33;0.70;;;21.80;56.40;;;;;;10046420;28;20507;-62
2022/07/28 02:31:18;;;;;;;0.90;0.70;;;21.80;56.30;;;;;;10054019;28;20263;-63
2022/07/28 02:36:16;;;;;;;0.88;0.80;;;21.70;56.70;;;;;;10051587;28;20125;-62
2022/07/28 02:41:14;;;;;;;1.08;0.80;;;21.80;56.60;;;;;;10054320;28;20108;-63
2022/07/28 02:46:12;;;;;;;1.90;0.75;;;21.70;56.80;;;;;;10051518;28;20041;-63
2022/07/28 02:51:04;;;;;;;2.25;0.70;;;21.70;56.90;;;;;;10052832;28;20025;-63
2022/07/28 02:55:56;;;;;;;4.85;0.80;;;21.80;56.80;;;;;;10052523;28;20030;-63
2022/07/28 03:00:49;;;;;;;1.75;0.80;;;21.80;56.70;;;;;;10053470;28;20045;-62
2022/07/28 03:05:40;;;;;;;1.15;0.88;;;21.70;56.80;;;;;;10041531;28;20375;-63
2022/07/28 03:10:31;;;;;;;1.63;1.02;;;21.50;57.10;;;;;;10050661;28;20029;-62
2022/07/28 03:15:23;;;;;;;2.83;0.82;;;21.60;57.00;;;;;;10047448;28;20033;-62
2022/07/28 03:20:13;;;;;;;0.90;0.90;;;21.50;57.00;;;;;;10059012;28;20029;-62
2022/07/28 03:25:26;;;;;;;2.33;1.10;;;21.50;56.90;;;;;;10060601;28;20091;-63
2022/07/28 03:30:25;;;;;;;1.15;0.75;;;21.50;57.00;;;;;;10058927;28;20088;-63
2022/07/28 03:35:17;;;;;;;1.48;0.93;;;21.50;57.10;;;;;;10059726;28;20054;-63
2022/07/28 03:40:10;;;;;;;2.58;0.80;;;21.50;56.90;;;;;;10059917;28;20026;-62
2022/07/28 03:45:01;;;;;;;1.17;0.70;;;21.60;56.70;;;;;;10059265;28;20044;-63
2022/07/28 03:49:52;;;;;;;1.77;1.40;;;21.50;56.80;;;;;;10057548;28;20447;-63
2022/07/28 03:54:43;;;;;;;4.05;0.98;;;21.50;56.90;;;;;;10053182;28;20062;-63
2022/07/28 03:59:34;;;;;;;2.08;0.88;;;21.40;57.10;;;;;;10059116;28;20021;-63
2022/07/28 04:04:25;;;;;;;1.92;1.00;;;21.40;57.20;;;;;;10057638;28;20033;-63
2022/07/28 04:09:16;;;;;;;1.08;0.70;;;21.40;57.10;;;;;;10058535;28;20063;-63
2022/07/28 04:14:07;;;;;;;2.65;1.08;;;21.30;57.40;;;;;;10057916;28;20021;-63
2022/07/28 04:18:57;;;;;;;1.35;1.05;;;21.40;57.00;;;;;;10058444;28;20021;-63
2022/07/28 04:23:48;;;;;;;5.28;1.17;;;21.50;57.00;;;;;;10052647;28;20388;-63
2022/07/28 04:28:39;;;;;;;2.83;1.00;;;21.10;57.50;;;;;;10057923;28;20715;-63
2022/07/28 04:33:30;;;;;;;2.22;0.75;;;21.20;57.40;;;;;;10058257;28;20040;-64
2022/07/28 04:38:20;;;;;;;3.53;0.80;;;21.10;57.70;;;;;;10057851;28;20068;-63
2022/07/28 04:43:11;;;;;;;2.00;0.65;;;21.10;57.50;;;;;;10058078;28;20022;-62
2022/07/28 04:48:02;;;;;;;1.38;0.70;;;21.00;57.70;;;;;;10057567;28;20037;-63
2022/07/28 04:52:53;;;;;;;1.65;1.02;;;20.90;58.20;;;;;;10053841;28;20030;-64
2022/07/28 04:57:43;;;;;;;0.85;0.75;;;21.00;58.10;;;;;;10057648;28;20222;-63
2022/07/28 05:02:34;;;;;;;1.38;0.82;;;21.00;58.10;;;;;;10050055;28;20280;-63
2022/07/28 05:07:25;;;;;;;2.08;0.70;;;20.80;58.40;;;;;;10054554;28;20103;-63
2022/07/28 05:12:15;;;;;;;1.73;0.95;;;21.00;58.10;;;;;;10056656;28;20475;-63
2022/07/28 05:17:06;;;;;;;1.52;0.70;;;20.90;58.20;;;;;;10056414;28;20029;-63
2022/07/28 05:21:57;;;;;;;3.33;0.65;;;20.80;58.50;;;;;;10051963;28;20063;-63
2022/07/28 05:26:47;;;;;;;3.33;0.98;;;21.20;57.90;;;;;;10054256;28;20045;-63
2022/07/28 05:31:38;;;;;;;3.05;0.70;;;21.30;57.80;;;;;;10055372;28;20096;-63
2022/07/28 05:36:28;;;;;;;1.90;1.02;;;21.20;58.00;;;;;;10055516;28;20045;-63
2022/07/28 05:41:19;;;;;;;2.42;1.35;;;21.20;58.30;;;;;;10054661;28;20108;-63
2022/07/28 05:46:10;;;;;;;2.58;0.80;;;21.10;58.60;;;;;;10054879;28;20081;-63
2022/07/28 05:51:01;;;;;;;4.22;0.95;;;21.40;58.10;;;;;;10054844;28;20080;-64
2022/07/28 05:55:51;;;;;;;1.35;0.80;;;21.20;58.40;;;;;;10053715;28;20279;-64
2022/07/28 06:00:42;;;;;;;0.80;0.70;;;21.00;58.90;;;;;;10047129;28;20025;-64
2022/07/28 06:05:33;;;;;;;1.30;0.77;;;21.10;58.80;;;;;;10054234;28;20021;-64
2022/07/28 06:10:25;;;;;;;2.30;1.20;;;21.00;59.00;;;;;;10053130;28;20033;-63
2022/07/28 06:15:20;;;;;;;2.55;1.00;;;21.20;58.90;;;;;;10053121;28;20025;-63
2022/07/28 06:20:12;;;;;;;1.90;0.82;;;21.20;58.80;;;;;;10053506;28;20029;-63
2022/07/28 06:25:03;;;;;;;2.45;1.08;;;21.30;58.80;;;;;;10047137;28;20045;-63
2022/07/28 06:29:53;;;;;;;2.15;1.13;;;21.60;58.50;;;;;;10053280;28;20029;-63
2022/07/28 06:34:44;;;;;;;2.05;0.65;;;21.50;58.70;;;;;;10043838;28;20032;-66
2022/07/28 06:39:35;;;;;;;4.75;1.17;;;21.50;58.80;;;;;;10051226;28;20034;-65
2022/07/28 06:44:25;;;;;;;7.05;1.85;;;21.50;58.80;;;;;;10051733;28;20036;-66
2022/07/28 06:49:16;;;;;;;2.55;1.40;;;21.30;59.00;;;;;;10047579;28;20029;-63
2022/07/28 06:54:07;;;;;;;1.90;0.90;;;21.30;59.30;;;;;;10045843;28;20401;-64
2022/07/28 06:58:57;;;;;;;3.20;1.17;;;21.30;59.30;;;;;;10045016;28;20373;-64
2022/07/28 07:03:48;;;;;;;3.55;0.98;;;21.50;59.30;;;;;;10051992;28;20033;-65
2022/07/28 07:08:39;;;;;;;1.38;1.20;;;21.50;59.30;;;;;;10050295;28;20030;-64
2022/07/28 07:13:29;;;;;;;2.75;1.30;;;21.70;59.20;;;;;;10054811;28;20380;-62
2022/07/28 07:18:20;;;;;;;3.03;1.55;;;21.80;59.30;;;;;;10044968;28;20029;-61
2022/07/28 07:23:11;;;;;;;1.90;1.25;;;21.70;59.50;;;;;;10049754;28;20037;-63
2022/07/28 07:28:02;;;;;;;4.43;1.65;;;21.90;59.30;;;;;;10050879;28;20041;-62
2022/07/28 07:32:53;;;;;;;4.63;2.13;;;22.10;59.20;;;;;;10043811;28;20109;-64
2022/07/28 07:37:43;;;;;;;3.72;1.10;;;22.00;59.30;;;;;;10053292;28;20128;-64
2022/07/28 07:42:34;;;;;;;2.08;1.08;;;22.10;59.50;;;;;;10052398;28;20533;-63
2022/07/28 07:47:25;;;;;;;3.67;1.45;;;22.30;59.50;;;;;;10052545;28;20567;-64
2022/07/28 07:52:15;;;;;;;3.72;0.98;;;22.30;59.50;;;;;;10049261;28;20061;-63
2022/07/28 07:57:06;;;;;;;3.83;1.30;;;22.40;59.60;;;;;;10052936;28;20022;-62
2022/07/28 08:01:57;;;;;;;2.15;1.00;;;22.60;59.40;;;;;;10052195;28;20075;-62
2022/07/28 08:06:48;;;;;;;2.72;1.17;;;22.70;59.40;;;;;;10052506;28;20029;-64
2022/07/28 08:11:39;;;;;;;2.60;0.93;;;22.80;59.60;;;;;;10048998;28;20017;-63
2022/07/28 08:16:30;;;;;;;2.67;1.20;;;22.70;59.70;;;;;;10057740;28;20033;-63
2022/07/28 08:21:20;;;;;;;4.15;1.35;;;22.80;59.80;;;;;;10054458;28;20029;-65
2022/07/28 08:26:11;;;;;;;1.98;1.30;;;23.00;59.60;;;;;;10053927;28;20389;-62
2022/07/28 08:31:02;;;;;;;1.33;1.05;;;23.10;59.70;;;;;;10057432;28;20067;-63
2022/07/28 08:35:52;;;;;;;2.03;1.30;;;23.20;59.80;;;;;;10055794;28;20080;-62
2022/07/28 08:40:48;;;;;;;3.10;1.90;;;23.10;59.80;;;;;;10058141;28;20032;-62
2022/07/28 08:45:43;;;;;;;2.33;1.45;;;23.30;60.00;;;;;;10053601;28;20037;-62
2022/07/28 08:50:34;;;;;;;1.85;1.20;;;23.60;59.70;;;;;;10051463;28;20029;-62
2022/07/28 08:55:26;;;;;;;3.15;1.40;;;24.10;59.00;;;;;;10055187;28;20033;-61
2022/07/28 09:00:16;;;;;;;6.35;2.17;;;24.00;59.20;;;;;;10055725;28;20025;-67
2022/07/28 09:05:08;;;;;;;2.33;1.60;;;24.10;59.30;;;;;;10052978;28;20464;-66
2022/07/28 09:10:02;;;;;;;3.13;1.40;;;24.10;59.40;;;;;;10056441;28;20033;-63
2022/07/28 09:14:53;;;;;;;2.13;1.25;;;24.30;59.20;;;;;;10048567;28;20213;-64
2022/07/28 09:19:43;;;;;;;3.03;1.33;;;24.60;59.00;;;;;;10049770;28;20267;-64
2022/07/28 09:24:39;;;;;;;8.38;4.20;;;24.80;58.90;;;;;;10056533;28;20025;-63
2022/07/28 09:29:30;;;;;;;3.22;1.98;;;24.80;59.00;;;;;;10054087;28;20052;-65
2022/07/28 09:34:20;;;;;;;2.67;1.50;;;24.90;58.90;;;;;;10054309;28;20032;-70
2022/07/28 09:39:33;;;;;;;2.88;1.88;;;25.00;58.80;;;;;;10055505;28;20124;-66
2022/07/28 09:44:26;;;;;;;3.42;1.60;;;24.70;59.30;;;;;;10054843;28;20091;-67
2022/07/28 09:49:16;;;;;;;3.17;1.52;;;24.60;59.40;;;;;;10050685;28;20045;-67
2022/07/28 09:54:09;;;;;;;3.50;1.40;;;24.50;59.40;;;;;;10050163;28;20104;-65
2022/07/28 09:59:02;;;;;;;5.22;1.60;;;24.50;59.70;;;;;;10049054;28;20029;-65
2022/07/28 10:03:55;;;;;;;4.25;1.75;;;24.70;59.60;;;;;;10049875;28;20112;-69
2022/07/28 10:08:49;;;;;;;4.30;1.80;;;25.10;59.20;;;;;;10049246;28;20065;-63
2022/07/28 10:14:03;;;;;;;3.90;1.80;;;25.30;59.00;;;;;;10051013;28;20104;-62
2022/07/28 10:18:55;;;;;;;3.33;1.58;;;25.30;59.20;;;;;;10052885;28;20025;-64
2022/07/28 10:23:49;;;;;;;3.78;2.15;;;25.40;59.10;;;;;;10042677;28;20037;-64
2022/07/28 10:28:46;;;;;;;6.80;3.13;;;25.60;59.10;;;;;;10037107;28;20037;-65
2022/07/28 10:33:42;;;;;;;6.32;2.97;;;25.70;59.00;;;;;;10020424;28;20251;-63
2022/07/28 10:38:34;;;;;;;4.55;2.63;;;25.80;58.90;;;;;;10037035;28;20127;-63
2022/07/28 10:43:26;;;;;;;5.57;2.30;;;26.20;58.50;;;;;;10049750;28;20026;-64
2022/07/28 10:48:20;;;;;;;6.20;3.90;;;26.50;58.30;;;;;;10050801;28;20068;-64
2022/07/28 10:53:22;;;;;;;3.00;2.25;;;26.80;58.20;;;;;;10049319;28;20036;-64
2022/07/28 10:58:25;;;;;;;6.78;4.35;;;27.30;57.60;;;;;;10045922;28;20029;-64
2022/07/28 11:03:38;;;;;;;4.47;3.28;;;27.10;58.00;;;;;;10052385;28;20041;-64
2022/07/28 11:08:30;;;;;;;4.90;2.43;;;27.10;58.00;;;;;;10052905;28;20045;-64
2022/07/28 11:13:24;;;;;;;3.67;2.22;;;27.40;57.70;;;;;;10035182;28;20434;-64
2022/07/28 11:18:15;;;;;;;4.10;2.45;;;27.30;57.80;;;;;;10033278;28;20433;-64
2022/07/28 11:23:45;;;;;;;6.30;3.20;;;27.50;57.70;;;;;;10052993;28;20033;-65
2022/07/28 11:28:56;;;;;;;4.10;3.05;;;27.70;57.50;;;;;;10039730;28;20052;-65
2022/07/28 11:33:54;;;;;;;5.45;2.70;;;27.90;57.30;;;;;;10052235;28;20100;-65
2022/07/28 11:39:21;;;;;;;3.33;2.50;;;28.20;57.80;;;;;;10046387;28;20416;-63
2022/07/28 11:44:30;;;;;;;6.30;2.67;;;28.30;57.10;;;;;;10056620;28;20021;-64
2022/07/28 11:49:23;;;;;;;4.45;2.67;;;28.50;56.90;;;;;;10059890;28;20075;-63
2022/07/28 11:54:18;;;;;;;4.60;2.77;;;28.80;56.70;;;;;;10060396;28;20017;-64
2022/07/28 11:59:10;;;;;;;3.40;3.05;;;28.80;56.60;;;;;;10064496;28;20888;-64
2022/07/28 12:04:10;;;;;;;2.53;2.25;;;29.20;56.60;;;;;;10061311;28;20099;-66
2022/07/28 12:14:13;;;;;;;3.75;3.35;;;29.30;56.10;;;;;;10602778;22;20053;-63
2022/07/28 12:19:05;;;;;;;4.80;1.98;;;29.50;55.90;;;;;;10054994;28;20064;-66
2022/07/28 12:23:56;;;;;;;4.13;2.83;;;29.80;55.60;;;;;;10060061;28;20530;-68
2022/07/28 12:28:50;;;;;;;5.53;2.95;;;30.20;55.60;;;;;;10054512;28;20124;-67
2022/07/28 12:33:40;;;;;;;3.65;2.58;;;30.50;55.20;;;;;;10065148;28;20017;-66
2022/07/28 12:38:32;;;;;;;3.85;2.80;;;30.60;55.20;;;;;;10038783;28;20121;-63
2022/07/28 12:43:26;;;;;;;4.25;2.40;;;30.90;54.80;;;;;;10045088;28;20026;-65
2022/07/28 12:48:17;;;;;;;5.38;2.63;;;30.90;54.90;;;;;;10046066;28;20124;-66
2022/07/28 12:53:10;;;;;;;4.05;2.30;;;30.60;54.60;;;;;;10039387;28;20559;-64
2022/07/28 12:58:02;;;;;;;2.83;2.25;;;30.20;54.70;;;;;;10034100;28;20036;-66
2022/07/28 13:02:55;;;;;;;5.32;2.53;;;31.00;54.70;;;;;;10047876;28;20079;-64
2022/07/28 13:08:00;;;;;;;3.65;2.38;;;31.40;54.20;;;;;;10055609;28;20052;-68
2022/07/28 13:13:05;;;;;;;4.32;2.42;;;31.80;53.60;;;;;;10035180;28;20049;-64
2022/07/28 13:17:56;;;;;;;3.08;2.47;;;32.00;53.00;;;;;;10054436;28;20033;-65
2022/07/28 13:22:47;;;;;;;4.60;2.97;;;32.50;52.90;;;;;;10034944;28;20026;-62
2022/07/28 13:27:38;;;;;;;6.13;3.03;;;34.00;51.90;;;;;;10063006;28;20518;-65
2022/07/28 13:32:29;;;;;;;5.53;3.95;;;34.20;51.20;;;;;;10038847;28;20661;-67
2022/07/28 13:37:19;;;;;;;4.55;3.00;;;35.20;50.30;;;;;;10045574;28;20311;-65
2022/07/28 13:42:10;;;;;;;5.90;2.97;;;35.20;49.90;;;;;;10040627;28;20021;-64
2022/07/28 13:47:03;;;;;;;2.97;2.42;;;35.60;49.20;;;;;;10035620;28;20419;-66
2022/07/28 13:51:54;;;;;;;3.17;2.53;;;36.40;48.60;;;;;;10030970;28;20025;-64
2022/07/28 13:56:45;;;;;;;6.07;3.75;;;36.60;48.20;;;;;;10040041;28;20029;-65
2022/07/28 14:01:36;;;;;;;6.05;2.78;;;37.10;47.50;;;;;;10046903;28;20269;-65
2022/07/28 14:06:27;;;;;;;5.15;2.75;;;36.90;47.30;;;;;;10039061;28;20033;-66
2022/07/28 14:11:18;;;;;;;4.68;2.50;;;38.10;46.80;;;;;;10033008;28;20140;-67
2022/07/28 14:16:08;;;;;;;4.57;2.80;;;38.50;46.10;;;;;;10038368;28;20110;-67
2022/07/28 14:20:59;;;;;;;3.40;3.05;;;38.00;46.10;;;;;;10037186;28;20030;-65
2022/07/28 14:25:50;;;;;;;3.17;2.28;;;38.80;45.50;;;;;;10051514;28;20104;-64
2022/07/28 14:30:40;;;;;;;4.32;2.40;;;38.20;45.40;;;;;;10036564;28;20021;-65
2022/07/28 14:35:31;;;;;;;;;;;37.00;45.70;;;;;;10044077;28;20028;-65
2022/07/28 14:40:22;;;;;;;3.57;2.47;;;36.80;45.50;;;;;;10053168;28;19952;-65
2022/07/28 14:45:13;;;;;;;4.07;2.47;;;37.50;45.30;;;;;;10040916;28;20125;-69
2022/07/28 14:50:04;;;;;;;3.88;2.50;;;38.50;44.60;;;;;;10030668;28;20041;-69
2022/07/28 14:54:56;;;;;;;6.28;2.55;;;38.70;44.10;;;;;;10033836;28;20556;-67
2022/07/28 14:59:46;;;;;;;2.97;2.67;;;37.70;44.20;;;;;;10024634;28;20022;-69
2022/07/28 15:04:37;;;;;;;5.00;2.60;;;35.70;45.40;;;;;;10031903;28;20025;-66
2022/07/28 15:09:28;;;;;;;4.28;2.75;;;35.10;45.70;;;;;;10044695;28;20097;-66
2022/07/28 15:14:18;;;;;;;4.35;2.90;;;34.40;46.10;;;;;;10038731;28;20045;-66
2022/07/28 15:19:09;;;;;;;3.38;2.63;;;34.30;46.30;;;;;;10040248;28;20033;-64
2022/07/28 15:24:00;;;;;;;3.40;3.08;;;34.00;46.20;;;;;;10028782;28;20032;-62
2022/07/28 15:28:50;;;;;;;4.32;3.05;;;33.90;46.40;;;;;;10030677;28;20041;-64
2022/07/28 15:33:41;;;;;;;4.47;3.08;;;34.80;46.00;;;;;;10027869;28;20022;-64
2022/07/28 15:38:32;;;;;;;5.22;2.83;;;35.00;45.90;;;;;;10051191;28;20025;-64
2022/07/28 15:43:22;;;;;;;5.07;2.90;;;34.80;46.10;;;;;;10050932;28;20074;-69
2022/07/28 15:48:13;;;;;;;2.77;2.40;;;36.00;45.40;;;;;;10020138;28;20499;-67
2022/07/28 15:53:04;;;;;;;3.47;3.07;;;36.60;44.80;;;;;;10034214;28;20365;-70
2022/07/28 15:57:55;;;;;;;3.40;2.30;;;36.30;45.10;;;;;;10040675;28;20033;-66
2022/07/28 16:02:46;;;;;;;3.08;2.60;;;36.70;44.60;;;;;;10035456;28;20107;-64
2022/07/28 16:07:37;;;;;;;6.82;3.47;;;36.70;44.50;;;;;;10047764;28;20033;-66
2022/07/28 16:12:28;;;;;;;4.78;3.70;;;37.90;43.60;;;;;;10049730;28;20057;-64
2022/07/28 16:17:23;;;;;;;5.18;2.80;;;38.30;43.00;;;;;;10052807;28;20033;-66
2022/07/28 16:22:13;;;;;;;3.83;2.58;;;39.30;42.30;;;;;;10050051;28;20591;-64
2022/07/28 16:27:04;;;;;;;;;;;39.90;41.60;;;;;;10048455;28;20350;-65
2022/07/28 16:31:54;;;;;;;3.58;2.17;;;39.30;41.30;;;;;;10041414;28;20330;-67
2022/07/28 16:36:45;;;;;;;3.27;2.60;;;37.10;43.00;;;;;;10056540;28;20557;-66
2022/07/28 16:41:36;;;;;;;7.32;3.75;;;35.40;43.90;;;;;;10057184;28;20064;-68
2022/07/28 16:46:27;;;;;;;6.60;3.10;;;34.00;44.60;;;;;;10048840;28;20049;-70
2022/07/28 16:51:19;;;;;;;6.80;3.20;;;34.90;44.00;;;;;;10040498;28;20022;-67
2022/07/28 16:56:12;;;;;;;2.80;2.05;;;33.70;44.80;;;;;;10041219;28;20033;-67
2022/07/28 17:01:03;;;;;;;;;;;32.60;46.00;;;;;;10042722;28;20010;-68
2022/07/28 17:05:54;;;;;;;5.38;3.00;;;31.90;46.70;;;;;;10047084;28;19919;-68
2022/07/28 17:10:45;;;;;;;3.63;3.20;;;32.00;46.50;;;;;;10050272;28;20025;-67
2022/07/28 17:15:39;;;;;;;2.90;2.60;;;32.20;46.50;;;;;;10043366;28;20410;-65
2022/07/28 17:20:30;;;;;;;;;;;32.20;46.60;;;;;;10051180;28;20029;-63
2022/07/28 17:25:20;;;;;;;4.70;2.78;;;31.70;47.00;;;;;;10040932;28;19932;-65
2022/07/28 17:30:12;;;;;;;3.05;2.72;;;31.40;47.30;;;;;;10043872;28;20022;-64
2022/07/28 17:35:03;;;;;;;5.65;2.97;;;31.20;47.80;;;;;;10042970;28;20038;-65
2022/07/28 17:39:54;;;;;;;4.50;2.47;;;30.90;48.20;;;;;;10042061;28;20032;-70
2022/07/28 17:44:44;;;;;;;6.43;3.22;;;30.70;48.40;;;;;;10039888;28;20896;-69
2022/07/28 17:49:35;;;;;;;5.80;3.05;;;30.70;48.50;;;;;;10040089;28;20081;-72
2022/07/28 17:55:32;;;;;;;4.28;2.85;;;30.60;48.70;;;;;;10061292;28;20022;-69
2022/07/28 17:59:37;;;;;;;5.47;2.30;;;30.60;48.90;;;;;;10058620;28;20168;-71
2022/07/28 18:04:27;;;;;;;4.63;2.67;;;30.70;49.00;;;;;;10058411;28;20100;-72
2022/07/28 18:09:18;;;;;;;3.60;2.72;;;30.60;49.30;;;;;;10052573;28;20052;-68
2022/07/28 18:14:09;;;;;;;5.53;3.38;;;30.50;49.50;;;;;;10054221;28;20045;-66
2022/07/28 18:18:59;;;;;;;5.05;2.80;;;30.30;49.60;;;;;;10039799;28;20025;-67
2022/07/28 18:23:50;;;;;;;5.20;3.35;;;30.20;49.90;;;;;;10051766;28;20033;-67
2022/07/28 18:28:41;;;;;;;5.43;2.88;;;30.10;50.10;;;;;;10041933;28;20033;-67
2022/07/28 18:33:31;;;;;;;6.47;3.10;;;30.10;50.10;;;;;;10030832;28;20030;-64
2022/07/28 18:38:22;;;;;;;8.98;3.30;;;30.00;50.80;;;;;;10040320;28;21484;-67
2022/07/28 18:43:13;;;;;;;4.00;2.47;;;30.00;50.10;;;;;;10044481;28;20033;-66
2022/07/28 18:48:04;;;;;;;8.88;5.13;;;29.80;50.30;;;;;;10044944;28;20041;-66
2022/07/28 18:52:54;;;;;;;5.68;3.38;;;29.60;50.40;;;;;;10054839;28;20071;-68
2022/07/28 18:57:46;;;;;;;5.28;3.33;;;29.50;50.50;;;;;;10039216;28;20488;-69
2022/07/28 19:02:36;;;;;;;7.32;3.55;;;29.30;50.90;;;;;;10054874;28;20017;-69
2022/07/28 19:07:27;;;;;;;9.43;4.03;;;29.20;50.90;;;;;;10054615;28;20029;-69
2022/07/28 19:12:18;;;;;;;10.48;4.85;;;29.10;50.90;;;;;;10038915;28;20056;-68
2022/07/28 19:17:09;;;;;;;7.78;3.25;;;29.00;51.20;;;;;;10041602;28;20030;-69
2022/07/28 19:22:00;;;;;;;9.85;4.20;;;28.90;51.40;;;;;;10050094;28;20113;-68
2022/07/28 19:26:52;;;;;;;4.60;3.55;;;28.90;51.40;;;;;;10036459;28;20171;-68
2022/07/28 19:31:43;;;;;;;4.22;3.50;;;28.80;52.10;;;;;;10057504;28;20021;-67
2022/07/28 19:36:34;;;;;;;4.68;3.60;;;28.80;51.50;;;;;;10061007;28;20025;-65
2022/07/28 19:41:25;;;;;;;6.40;3.85;;;28.80;51.70;;;;;;10048938;28;20017;-69
2022/07/28 19:46:17;;;;;;;4.90;3.15;;;28.80;51.80;;;;;;10054541;28;20030;-67
2022/07/28 19:51:08;;;;;;;6.40;3.33;;;28.40;52.30;;;;;;10044082;28;20062;-67
2022/07/28 19:55:58;;;;;;;8.35;3.53;;;28.30;52.50;;;;;;10053909;28;20045;-66
2022/07/28 20:00:50;;;;;;;6.38;3.30;;;28.10;52.80;;;;;;10063107;28;20056;-67
2022/07/28 20:05:41;;;;;;;8.88;4.07;;;28.00;53.00;;;;;;10060243;28;20033;-67
2022/07/28 20:10:33;;;;;;;7.68;3.10;;;27.90;53.10;;;;;;10060651;28;20033;-68
2022/07/28 20:15:24;;;;;;;6.00;3.13;;;27.80;53.40;;;;;;10055812;28;20529;-68
2022/07/28 20:20:15;;;;;;;5.47;3.30;;;27.70;53.30;;;;;;10054622;28;20025;-67
2022/07/28 20:25:07;;;;;;;3.88;3.03;;;27.60;53.70;;;;;;10059804;28;20025;-68
2022/07/28 20:29:58;;;;;;;7.75;2.67;;;27.80;53.40;;;;;;10056985;28;20045;-68
2022/07/28 20:34:50;;;;;;;3.90;3.35;;;27.80;53.30;;;;;;10057457;28;20028;-69
2022/07/28 20:39:41;;;;;;;4.35;2.40;;;27.70;53.20;;;;;;10049724;28;20395;-70
2022/07/28 20:44:32;;;;;;;4.75;2.70;;;27.60;53.20;;;;;;10046610;28;20032;-67
2022/07/28 20:49:22;;;;;;;6.20;3.10;;;27.60;53.20;;;;;;10046441;28;20037;-67
2022/07/28 20:54:13;;;;;;;4.60;2.60;;;27.80;53.00;;;;;;10043651;28;20040;-66
2022/07/28 20:59:04;;;;;;;7.88;5.05;;;27.80;53.10;;;;;;10059265;28;20275;-69
2022/07/28 21:03:54;;;;;;;4.25;3.03;;;27.70;52.80;;;;;;10053540;28;20071;-69
2022/07/28 21:08:45;;;;;;;4.00;2.30;;;27.80;52.80;;;;;;10045193;28;20622;-67
2022/07/28 21:13:36;;;;;;;7.22;3.40;;;27.70;52.80;;;;;;10043377;28;20128;-67
2022/07/28 21:18:26;;;;;;;3.38;2.40;;;27.60;52.80;;;;;;10037803;28;20113;-68
2022/07/28 21:23:17;;;;;;;4.35;2.58;;;27.60;52.70;;;;;;10034392;28;20411;-66
2022/07/28 21:33:17;;;;;;;3.08;2.45;;;27.80;52.70;;;;;;10043603;28;20099;-66
2022/07/28 21:38:08;;;;;;;4.07;3.05;;;27.70;52.80;;;;;;10029448;28;20105;-66
2022/07/28 21:42:59;;;;;;;3.70;2.60;;;27.70;52.70;;;;;;10038315;28;20487;-66
2022/07/28 21:47:49;;;;;;;3.92;2.58;;;27.60;52.90;;;;;;10040807;28;20119;-66
2022/07/28 21:52:40;;;;;;;3.42;2.17;;;27.50;53.00;;;;;;10034150;28;20396;-66
2022/07/28 21:57:31;;;;;;;2.45;2.08;;;27.40;53.00;;;;;;10052310;28;20025;-66
2022/07/28 22:02:22;;;;;;;5.93;2.63;;;27.30;53.00;;;;;;10028783;28;20025;-66
2022/07/28 22:07:13;;;;;;;2.90;2.05;;;27.40;53.00;;;;;;10046854;28;20041;-65
2022/07/28 22:12:04;;;;;;;4.30;2.70;;;27.30;52.90;;;;;;10060564;28;20045;-67
2022/07/28 22:16:55;;;;;;;3.00;2.13;;;27.30;53.10;;;;;;10057562;28;20021;-66
2022/07/28 22:21:45;;;;;;;4.13;2.28;;;27.20;53.10;;;;;;10061845;28;20053;-67
2022/07/28 22:26:36;;;;;;;2.78;2.00;;;27.30;53.00;;;;;;10052480;28;20030;-67
2022/07/28 22:31:26;;;;;;;3.45;2.22;;;27.30;53.00;;;;;;10057091;28;20033;-65
2022/07/28 22:36:17;;;;;;;5.65;2.00;;;27.20;53.00;;;;;;10045049;28;20113;-66
2022/07/28 22:41:08;;;;;;;4.32;2.13;;;27.10;53.10;;;;;;10042179;28;20230;-69
2022/07/28 22:45:59;;;;;;;5.68;2.15;;;27.00;53.20;;;;;;10058953;28;20097;-67
2022/07/28 22:50:49;;;;;;;2.90;2.15;;;27.10;53.30;;;;;;10061811;28;20050;-73
2022/07/28 22:55:40;;;;;;;4.63;2.20;;;26.90;53.20;;;;;;10060683;28;20022;-67
2022/07/28 23:00:31;;;;;;;5.80;2.25;;;26.90;53.20;;;;;;10049438;28;20030;-69
2022/07/28 23:05:22;;;;;;;3.20;2.40;;;26.70;53.40;;;;;;10050053;28;20229;-73
2022/07/28 23:10:12;;;;;;;3.05;1.95;;;26.60;53.50;;;;;;10067231;28;20119;-65
2022/07/28 23:15:04;;;;;;;5.43;2.22;;;26.60;53.60;;;;;;10045515;28;20054;-65
2022/07/28 23:19:57;;;;;;;3.42;2.35;;;26.50;53.60;;;;;;10030757;28;20136;-65
2022/07/28 23:24:48;;;;;;;5.82;2.67;;;26.40;53.70;;;;;;10035707;28;20025;-68
2022/07/28 23:29:38;;;;;;;5.35;3.13;;;26.20;54.20;;;;;;10030574;28;20499;-64
2022/07/28 23:34:29;;;;;;;7.40;2.75;;;26.00;54.80;;;;;;10042313;28;20030;-63
2022/07/28 23:39:20;;;;;;;5.22;3.25;;;25.90;55.30;;;;;;10046464;28;20021;-67
2022/07/28 23:44:10;;;;;;;3.95;3.00;;;25.80;55.90;;;;;;10044439;28;20109;-64
2022/07/28 23:49:02;;;;;;;4.20;3.35;;;25.70;56.20;;;;;;10060674;28;20029;-65
2022/07/28 23:53:53;;;;;;;4.07;3.33;;;25.60;56.60;;;;;;10063800;28;20116;-64
2022/07/28 23:58:44;;;;;;;3.22;2.92;;;25.50;57.00;;;;;;10065133;28;20044;-65
